Portada
METAR-TAF:

METAR-TAF

Aeropuertos :

Taif, Arabia Saudita

latitud: 21-29N, longitud: 040-33E, altitud: 1478 m

Observación

El informe se hizo hace 1 hora y 10 minutos, a las 03:00 UTC
Viento 14 kt del suroeste
Temperatura 16°C
Humedad 68%
Presión 1017 hPa
Visibilidad 10 km o más
Escasas nubes a una altura de 3000 ft

METAR: OETF 280300Z 22014KT 9999 FEW030 16/10 Q1017 NOSIG

Hora: 07:10 (04:10 UTC)

Pronóstico

El informe se hizo hace 5 horas y 10 minutos, a las 23:00 UTC
Pronóstico válido del 28 a las 00 UTC al 01 a las 06 UTC
Viento 3 kt con dirección variable
Visibilidad 10 km o más
Nubes dispersas a una altura de 3000 ft
Evolucionando progresivamente
del 28 a las 06 UTC al 28 a las 08 UTC
Viento 10 kt del sureste
Temporalmente
del 28 a las 10 UTC al 28 a las 16 UTC
Escasas nubes a una altura de 2500 ft, Cumulonimbus.

TAF: OETF 272300Z 2800/0106 VRB03KT 9999 SCT030 BECMG 2806/2808 14010KT TEMPO 2810/2816 FEW025CB

Observaciones y pronósticos meteorológicos de más de 4000 aeropuertos (mensajes METAR y TAF).

Los puntos amarillos y rojos representan las estaciones disponibles.

Ponga el ratón en el punto deseado para ver el nombre de la estación.

Haga clic para ver las observaciones y los pronósticos meteorológicos.

Para cambiar el mapa : haga clic en los botones verdes con una cruz de color negro para hacer un zoom, en el botón verde con un guión para alejar o en las flechas verdes para mapas adyacentes.


METAR-TAF: